TGL66PC LIRF-LFLL
Flight info
| Callsign | TGL66PC |
|---|---|
| Flight time | 1h 9m |
| Altitude | 34000 |
| Route | NEMBO DCT LAGEN DCT TOP DCT IXUSA DCT RONOP/N0440F280 DCT GIGUS/N0433F270 Z40 AMVAR |
| Aircraft | A320/M-SDE3FGHIRWY/LB1 |
Departure
| Time | 2026-05-01 09:32 |
|---|---|
| Airport | Rome–Fiumicino Leonardo da Vinci International Airport (LIRF) |
Arrival
| Time | 2026-05-01 10:42 |
|---|---|
| Airport | Lyon Saint-Exupéry Airport (LFLL) |
| Time | Latitude | Longitude | Altitude | Speed | Heading |
|---|---|---|---|---|---|
| 2026-05-01 08:38 | 41.79792 | 12.25528 | 18 ft | 0 kts | 115° |
| 2026-05-01 09:13 | 41.79801 | 12.25503 | 20 ft | 4 kts | 118° |
| 2026-05-01 09:14 | 41.79812 | 12.25472 | 21 ft | 4 kts | 93° |
| 2026-05-01 09:14 | 41.79811 | 12.25458 | 21 ft | 0 kts | 25° |
| 2026-05-01 09:17 | 41.79816 | 12.25461 | 21 ft | 3 kts | 26° |
| 2026-05-01 09:17 | 41.79853 | 12.25485 | 18 ft | 8 kts | 25° |
| 2026-05-01 09:17 | 41.79958 | 12.25550 | 17 ft | 9 kts | 26° |
| 2026-05-01 09:18 | 41.80015 | 12.25559 | 19 ft | 9 kts | 321° |
| 2026-05-01 09:18 | 41.80062 | 12.25428 | 17 ft | 7 kts | 295° |
| 2026-05-01 09:19 | 41.80105 | 12.25310 | 18 ft | 9 kts | 295° |
| 2026-05-01 09:19 | 41.80137 | 12.25220 | 17 ft | 13 kts | 295° |
| 2026-05-01 09:19 | 41.80176 | 12.25109 | 18 ft | 14 kts | 296° |
| 2026-05-01 09:20 | 41.80203 | 12.24869 | 16 ft | 13 kts | 258° |
| 2026-05-01 09:20 | 41.80132 | 12.24600 | 10 ft | 16 kts | 249° |
| 2026-05-01 09:21 | 41.80062 | 12.24347 | 10 ft | 14 kts | 250° |
| 2026-05-01 09:21 | 41.80032 | 12.24236 | 10 ft | 12 kts | 250° |
| 2026-05-01 09:21 | 41.79984 | 12.24045 | 12 ft | 12 kts | 262° |
| 2026-05-01 09:22 | 41.79938 | 12.23833 | 14 ft | 9 kts | 250° |
| 2026-05-01 09:22 | 41.79905 | 12.23712 | 15 ft | 9 kts | 248° |
| 2026-05-01 09:23 | 41.79833 | 12.23683 | 13 ft | 16 kts | 161° |
| 2026-05-01 09:23 | 41.79616 | 12.23775 | 13 ft | 15 kts | 163° |
| 2026-05-01 09:24 | 41.79433 | 12.23852 | 14 ft | 12 kts | 163° |
| 2026-05-01 09:24 | 41.79361 | 12.23882 | 15 ft | 10 kts | 162° |
| 2026-05-01 09:24 | 41.79227 | 12.23939 | 15 ft | 10 kts | 162° |
| 2026-05-01 09:25 | 41.79126 | 12.23981 | 15 ft | 6 kts | 162° |
| 2026-05-01 09:25 | 41.78986 | 12.24040 | 13 ft | 13 kts | 161° |
| 2026-05-01 09:26 | 41.78902 | 12.24076 | 12 ft | 12 kts | 163° |
| 2026-05-01 09:26 | 41.78753 | 12.24138 | 12 ft | 11 kts | 162° |
| 2026-05-01 09:26 | 41.78682 | 12.24167 | 11 ft | 10 kts | 163° |
| 2026-05-01 09:27 | 41.78568 | 12.24215 | 16 ft | 12 kts | 162° |
| 2026-05-01 09:27 | 41.78485 | 12.24250 | 16 ft | 11 kts | 162° |
| 2026-05-01 09:27 | 41.78414 | 12.24280 | 16 ft | 12 kts | 161° |
| 2026-05-01 09:28 | 41.78337 | 12.24292 | 17 ft | 10 kts | 208° |
| 2026-05-01 09:28 | 41.78307 | 12.24209 | 17 ft | 10 kts | 253° |
| 2026-05-01 09:28 | 41.78300 | 12.24176 | 19 ft | 0 kts | 254° |
| 2026-05-01 09:30 | 41.78298 | 12.24168 | 18 ft | 5 kts | 254° |
| 2026-05-01 09:30 | 41.78286 | 12.24114 | 17 ft | 5 kts | 253° |
| 2026-05-01 09:30 | 41.78313 | 12.23992 | 18 ft | 0 kts | 342° |
| 2026-05-01 09:31 | 41.78472 | 12.23926 | 13 ft | 60 kts | 342° |
| 2026-05-01 09:32 | 41.79077 | 12.23674 | 14 ft | 118 kts | 343° |
| 2026-05-01 09:32 | 41.81114 | 12.22835 | 498 ft | 169 kts | 346° |
| 2026-05-01 09:32 | 41.82243 | 12.22338 | 1154 ft | 173 kts | 331° |
| 2026-05-01 09:33 | 41.83055 | 12.21131 | 1819 ft | 184 kts | 298° |
| 2026-05-01 09:33 | 41.83233 | 12.19332 | 2180 ft | 211 kts | 260° |
| 2026-05-01 09:33 | 41.81575 | 12.15767 | 3385 ft | 233 kts | 235° |
| 2026-05-01 09:34 | 41.80645 | 12.14015 | 4187 ft | 236 kts | 236° |
| 2026-05-01 09:34 | 41.79785 | 12.12133 | 4923 ft | 238 kts | 252° |
| 2026-05-01 09:34 | 41.79361 | 12.07624 | 6014 ft | 264 kts | 268° |
| 2026-05-01 09:35 | 41.79215 | 12.05083 | 6541 ft | 280 kts | 268° |
| 2026-05-01 09:35 | 41.78893 | 11.99750 | 7055 ft | 289 kts | 268° |
| 2026-05-01 09:35 | 41.78724 | 11.97065 | 7069 ft | 289 kts | 268° |
| 2026-05-01 09:36 | 41.78556 | 11.94415 | 7075 ft | 288 kts | 268° |
| 2026-05-01 09:36 | 41.78384 | 11.91743 | 7073 ft | 287 kts | 268° |
| 2026-05-01 09:36 | 41.78212 | 11.89080 | 7233 ft | 291 kts | 268° |
| 2026-05-01 09:36 | 41.78038 | 11.86389 | 8153 ft | 289 kts | 269° |
| 2026-05-01 09:37 | 41.77864 | 11.83704 | 9030 ft | 290 kts | 270° |
| 2026-05-01 09:37 | 41.77518 | 11.78245 | 10579 ft | 300 kts | 271° |
| 2026-05-01 09:37 | 41.77347 | 11.75346 | 10813 ft | 323 kts | 271° |
| 2026-05-01 09:38 | 41.77544 | 11.69075 | 11436 ft | 351 kts | 282° |
| 2026-05-01 09:38 | 41.77858 | 11.65793 | 12074 ft | 356 kts | 282° |
| 2026-05-01 09:38 | 41.78168 | 11.62480 | 12756 ft | 360 kts | 282° |
| 2026-05-01 09:39 | 41.79239 | 11.55940 | 14128 ft | 358 kts | 298° |
| 2026-05-01 09:39 | 41.80415 | 11.53022 | 14747 ft | 354 kts | 309° |
| 2026-05-01 09:39 | 41.81958 | 11.50474 | 15395 ft | 351 kts | 316° |
| 2026-05-01 09:40 | 41.83582 | 11.48015 | 16061 ft | 353 kts | 316° |
| 2026-05-01 09:40 | 41.86837 | 11.43052 | 17356 ft | 356 kts | 316° |
| 2026-05-01 09:40 | 41.88456 | 11.40572 | 17969 ft | 358 kts | 316° |
| 2026-05-01 09:41 | 41.90098 | 11.38055 | 18562 ft | 359 kts | 316° |
| 2026-05-01 09:41 | 41.93413 | 11.32966 | 19561 ft | 364 kts | 316° |
| 2026-05-01 09:41 | 41.95085 | 11.30397 | 20047 ft | 367 kts | 315° |
| 2026-05-01 09:42 | 41.96767 | 11.27811 | 20521 ft | 369 kts | 315° |
| 2026-05-01 09:42 | 41.98461 | 11.25204 | 20991 ft | 371 kts | 315° |
| 2026-05-01 09:42 | 42.01883 | 11.19931 | 21919 ft | 376 kts | 315° |
| 2026-05-01 09:43 | 42.05350 | 11.14592 | 22824 ft | 381 kts | 314° |
| 2026-05-01 09:43 | 42.07078 | 11.11928 | 23271 ft | 383 kts | 314° |
| 2026-05-01 09:43 | 42.08842 | 11.09205 | 23660 ft | 387 kts | 315° |
| 2026-05-01 09:44 | 42.12411 | 11.03675 | 24347 ft | 394 kts | 315° |
| 2026-05-01 09:44 | 42.14211 | 11.00882 | 24695 ft | 396 kts | 315° |
| 2026-05-01 09:44 | 42.15999 | 10.98108 | 25031 ft | 398 kts | 315° |
| 2026-05-01 09:45 | 42.17817 | 10.95287 | 25367 ft | 400 kts | 315° |
| 2026-05-01 09:45 | 42.21485 | 10.89589 | 26036 ft | 404 kts | 315° |
| 2026-05-01 09:45 | 42.23332 | 10.86711 | 26379 ft | 406 kts | 315° |
| 2026-05-01 09:46 | 42.25183 | 10.83817 | 26700 ft | 408 kts | 315° |
| 2026-05-01 09:46 | 42.27041 | 10.80910 | 27030 ft | 410 kts | 315° |
| 2026-05-01 09:46 | 42.28955 | 10.78042 | 27344 ft | 410 kts | 320° |
| 2026-05-01 09:46 | 42.31136 | 10.75578 | 27645 ft | 408 kts | 326° |
| 2026-05-01 09:47 | 42.33403 | 10.73245 | 27949 ft | 410 kts | 326° |
| 2026-05-01 09:47 | 42.35682 | 10.70894 | 28248 ft | 412 kts | 326° |
| 2026-05-01 09:47 | 42.37935 | 10.68559 | 28530 ft | 414 kts | 326° |
| 2026-05-01 09:47 | 42.40227 | 10.66176 | 28815 ft | 416 kts | 326° |
| 2026-05-01 09:48 | 42.42528 | 10.63780 | 29094 ft | 418 kts | 326° |
| 2026-05-01 09:48 | 42.44836 | 10.61376 | 29367 ft | 420 kts | 326° |
| 2026-05-01 09:48 | 42.47155 | 10.58956 | 29655 ft | 421 kts | 326° |
| 2026-05-01 09:48 | 42.49470 | 10.56529 | 29992 ft | 420 kts | 326° |
| 2026-05-01 09:49 | 42.51777 | 10.54108 | 30386 ft | 419 kts | 326° |
| 2026-05-01 09:49 | 42.54078 | 10.51694 | 30720 ft | 418 kts | 326° |
| 2026-05-01 09:49 | 42.56380 | 10.49283 | 31024 ft | 418 kts | 326° |
| 2026-05-01 09:49 | 42.58678 | 10.46875 | 31335 ft | 417 kts | 326° |
| 2026-05-01 09:50 | 42.60971 | 10.44465 | 31662 ft | 416 kts | 326° |
| 2026-05-01 09:50 | 42.63262 | 10.42057 | 32004 ft | 415 kts | 326° |
| 2026-05-01 09:50 | 42.65542 | 10.39660 | 32345 ft | 414 kts | 326° |
| 2026-05-01 09:50 | 42.67820 | 10.37267 | 32684 ft | 413 kts | 326° |
| 2026-05-01 09:51 | 42.70085 | 10.34884 | 33025 ft | 412 kts | 325° |
| 2026-05-01 09:51 | 42.72348 | 10.32499 | 33357 ft | 411 kts | 325° |
| 2026-05-01 09:51 | 42.74600 | 10.30126 | 33688 ft | 409 kts | 325° |
| 2026-05-01 09:51 | 42.76850 | 10.27756 | 34051 ft | 408 kts | 326° |
| 2026-05-01 09:52 | 42.79103 | 10.25382 | 34273 ft | 410 kts | 326° |
| 2026-05-01 09:52 | 42.80599 | 10.23802 | 34322 ft | 412 kts | 326° |
| 2026-05-01 09:52 | 42.85132 | 10.18997 | 34310 ft | 413 kts | 325° |
| 2026-05-01 09:53 | 42.89682 | 10.14159 | 34333 ft | 415 kts | 325° |
| 2026-05-01 09:53 | 42.94235 | 10.09315 | 34337 ft | 415 kts | 325° |
| 2026-05-01 09:54 | 42.98758 | 10.04503 | 34338 ft | 415 kts | 325° |
| 2026-05-01 09:54 | 43.03315 | 9.99642 | 34328 ft | 416 kts | 326° |
| 2026-05-01 09:55 | 43.07880 | 9.94767 | 34328 ft | 417 kts | 325° |
| 2026-05-01 09:55 | 43.12449 | 9.89865 | 34329 ft | 418 kts | 325° |
| 2026-05-01 09:56 | 43.17023 | 9.84939 | 34327 ft | 418 kts | 325° |
| 2026-05-01 09:56 | 43.21618 | 9.79999 | 34336 ft | 421 kts | 325° |
| 2026-05-01 09:57 | 43.26210 | 9.75054 | 34337 ft | 422 kts | 325° |
| 2026-05-01 09:57 | 43.30827 | 9.70057 | 34337 ft | 422 kts | 325° |
| 2026-05-01 09:58 | 43.35445 | 9.65057 | 34339 ft | 422 kts | 325° |
| 2026-05-01 09:58 | 43.40067 | 9.60052 | 34340 ft | 423 kts | 325° |
| 2026-05-01 09:59 | 43.44656 | 9.55070 | 34344 ft | 423 kts | 325° |
| 2026-05-01 09:59 | 43.49285 | 9.50026 | 34339 ft | 424 kts | 325° |
| 2026-05-01 10:00 | 43.53927 | 9.44958 | 34317 ft | 426 kts | 324° |
| 2026-05-01 10:00 | 43.58571 | 9.39892 | 34343 ft | 428 kts | 324° |
| 2026-05-01 10:01 | 43.63238 | 9.34779 | 34347 ft | 428 kts | 324° |
| 2026-05-01 10:01 | 43.67909 | 9.29648 | 34346 ft | 429 kts | 324° |
| 2026-05-01 10:02 | 43.72575 | 9.24513 | 34342 ft | 429 kts | 324° |
| 2026-05-01 10:02 | 43.77243 | 9.19362 | 34343 ft | 429 kts | 324° |
| 2026-05-01 10:03 | 43.81914 | 9.14206 | 34344 ft | 429 kts | 324° |
| 2026-05-01 10:03 | 43.86583 | 9.09044 | 34342 ft | 429 kts | 325° |
| 2026-05-01 10:04 | 43.91230 | 9.03896 | 34324 ft | 431 kts | 324° |
| 2026-05-01 10:04 | 43.95920 | 8.98687 | 34328 ft | 432 kts | 324° |
| 2026-05-01 10:05 | 44.00623 | 8.93448 | 34329 ft | 433 kts | 324° |
| 2026-05-01 10:05 | 44.05326 | 8.88200 | 34336 ft | 434 kts | 324° |
| 2026-05-01 10:06 | 44.10038 | 8.82929 | 34336 ft | 434 kts | 324° |
| 2026-05-01 10:06 | 44.14711 | 8.77684 | 34341 ft | 434 kts | 324° |
| 2026-05-01 10:07 | 44.19418 | 8.72400 | 34343 ft | 435 kts | 324° |
| 2026-05-01 10:07 | 44.24129 | 8.67098 | 34325 ft | 434 kts | 323° |
| 2026-05-01 10:08 | 44.31189 | 8.59134 | 34321 ft | 435 kts | 323° |
| 2026-05-01 10:09 | 44.35865 | 8.53839 | 34323 ft | 436 kts | 323° |
| 2026-05-01 10:09 | 44.40579 | 8.48478 | 34334 ft | 437 kts | 322° |
| 2026-05-01 10:10 | 44.45234 | 8.42999 | 34352 ft | 437 kts | 321° |
| 2026-05-01 10:10 | 44.52171 | 8.34678 | 34362 ft | 437 kts | 321° |
| 2026-05-01 10:11 | 44.56803 | 8.29131 | 34351 ft | 438 kts | 321° |
| 2026-05-01 10:11 | 44.61451 | 8.23591 | 34351 ft | 438 kts | 321° |
| 2026-05-01 10:12 | 44.66108 | 8.18037 | 34362 ft | 439 kts | 321° |
| 2026-05-01 10:13 | 44.73079 | 8.09686 | 34359 ft | 439 kts | 321° |
| 2026-05-01 10:13 | 44.77724 | 8.04091 | 34359 ft | 439 kts | 321° |
| 2026-05-01 10:14 | 44.84674 | 7.95710 | 34346 ft | 440 kts | 320° |
| 2026-05-01 10:14 | 44.89341 | 7.90062 | 34347 ft | 442 kts | 320° |
| 2026-05-01 10:15 | 44.93433 | 7.83587 | 34352 ft | 445 kts | 303° |
| 2026-05-01 10:15 | 44.96394 | 7.75889 | 34353 ft | 447 kts | 299° |
| 2026-05-01 10:16 | 44.99284 | 7.68148 | 34361 ft | 448 kts | 299° |
| 2026-05-01 10:17 | 45.03653 | 7.56450 | 34411 ft | 449 kts | 298° |
| 2026-05-01 10:17 | 45.08017 | 7.44671 | 34338 ft | 450 kts | 298° |
| 2026-05-01 10:18 | 45.12371 | 7.32882 | 34337 ft | 451 kts | 298° |
| 2026-05-01 10:19 | 45.15268 | 7.25011 | 34342 ft | 451 kts | 298° |
| 2026-05-01 10:19 | 45.18120 | 7.17106 | 34214 ft | 453 kts | 297° |
| 2026-05-01 10:20 | 45.20714 | 7.08982 | 33589 ft | 454 kts | 294° |
| 2026-05-01 10:20 | 45.21901 | 7.04784 | 32485 ft | 462 kts | 292° |
| 2026-05-01 10:20 | 45.23061 | 7.00510 | 31534 ft | 465 kts | 291° |
| 2026-05-01 10:20 | 45.24224 | 6.96202 | 30486 ft | 470 kts | 292° |
| 2026-05-01 10:21 | 45.25420 | 6.91850 | 29245 ft | 476 kts | 291° |
| 2026-05-01 10:21 | 45.27864 | 6.83232 | 28379 ft | 464 kts | 292° |
| 2026-05-01 10:21 | 45.29087 | 6.78996 | 28275 ft | 462 kts | 292° |
| 2026-05-01 10:22 | 45.31543 | 6.70504 | 26609 ft | 470 kts | 292° |
| 2026-05-01 10:22 | 45.33978 | 6.61945 | 24846 ft | 468 kts | 292° |
| 2026-05-01 10:23 | 45.35184 | 6.57661 | 24101 ft | 465 kts | 292° |
| 2026-05-01 10:23 | 45.37530 | 6.49157 | 22526 ft | 458 kts | 288° |
| 2026-05-01 10:23 | 45.38240 | 6.44737 | 21782 ft | 455 kts | 277° |
| 2026-05-01 10:24 | 45.38021 | 6.35964 | 20643 ft | 441 kts | 259° |
| 2026-05-01 10:24 | 45.37034 | 6.27469 | 19593 ft | 430 kts | 260° |
| 2026-05-01 10:25 | 45.36072 | 6.19169 | 18593 ft | 421 kts | 259° |
| 2026-05-01 10:25 | 45.35120 | 6.11054 | 17557 ft | 408 kts | 259° |
| 2026-05-01 10:26 | 45.34650 | 6.07096 | 17061 ft | 404 kts | 259° |
| 2026-05-01 10:26 | 45.34183 | 6.03189 | 16557 ft | 398 kts | 259° |
| 2026-05-01 10:26 | 45.33269 | 5.95537 | 15534 ft | 391 kts | 259° |
| 2026-05-01 10:27 | 45.32365 | 5.87979 | 14989 ft | 386 kts | 259° |
| 2026-05-01 10:27 | 45.31462 | 5.80494 | 14601 ft | 383 kts | 259° |
| 2026-05-01 10:28 | 45.31016 | 5.76828 | 14409 ft | 379 kts | 259° |
| 2026-05-01 10:28 | 45.30119 | 5.69469 | 14016 ft | 376 kts | 259° |
| 2026-05-01 10:28 | 45.29676 | 5.65796 | 13816 ft | 375 kts | 259° |
| 2026-05-01 10:29 | 45.29196 | 5.58475 | 13371 ft | 374 kts | 277° |
| 2026-05-01 10:29 | 45.29954 | 5.54997 | 13150 ft | 374 kts | 296° |
| 2026-05-01 10:30 | 45.33589 | 5.49894 | 12698 ft | 373 kts | 335° |
| 2026-05-01 10:30 | 45.38335 | 5.47006 | 12277 ft | 371 kts | 327° |
| 2026-05-01 10:31 | 45.42680 | 5.43074 | 11911 ft | 368 kts | 327° |
| 2026-05-01 10:31 | 45.47012 | 5.39189 | 11451 ft | 368 kts | 328° |
| 2026-05-01 10:32 | 45.51614 | 5.36223 | 10860 ft | 358 kts | 347° |
| 2026-05-01 10:32 | 45.54030 | 5.35777 | 10734 ft | 344 kts | 358° |
| 2026-05-01 10:32 | 45.58613 | 5.35515 | 10491 ft | 320 kts | 358° |
| 2026-05-01 10:33 | 45.62922 | 5.35252 | 10205 ft | 301 kts | 357° |
| 2026-05-01 10:33 | 45.67071 | 5.34994 | 9674 ft | 296 kts | 358° |
| 2026-05-01 10:34 | 45.69124 | 5.34871 | 9348 ft | 293 kts | 358° |
| 2026-05-01 10:34 | 45.71157 | 5.34754 | 9039 ft | 291 kts | 358° |
| 2026-05-01 10:34 | 45.73179 | 5.34637 | 8718 ft | 290 kts | 358° |
| 2026-05-01 10:35 | 45.77103 | 5.33818 | 8095 ft | 286 kts | 339° |
| 2026-05-01 10:35 | 45.78888 | 5.32574 | 7778 ft | 286 kts | 332° |
| 2026-05-01 10:35 | 45.80646 | 5.31244 | 7475 ft | 285 kts | 332° |
| 2026-05-01 10:35 | 45.82398 | 5.29924 | 7155 ft | 284 kts | 333° |
| 2026-05-01 10:36 | 45.85539 | 5.26537 | 6543 ft | 282 kts | 318° |
| 2026-05-01 10:36 | 45.87003 | 5.24644 | 6231 ft | 283 kts | 318° |
| 2026-05-01 10:36 | 45.88443 | 5.22784 | 5935 ft | 281 kts | 317° |
| 2026-05-01 10:37 | 45.89883 | 5.20919 | 5665 ft | 274 kts | 317° |
| 2026-05-01 10:37 | 45.92469 | 5.17235 | 5354 ft | 250 kts | 301° |
| 2026-05-01 10:37 | 45.93137 | 5.14981 | 5082 ft | 243 kts | 279° |
| 2026-05-01 10:38 | 45.93222 | 5.12610 | 4958 ft | 235 kts | 262° |
| 2026-05-01 10:38 | 45.93005 | 5.10313 | 4750 ft | 229 kts | 252° |
| 2026-05-01 10:38 | 45.92234 | 5.08367 | 4505 ft | 225 kts | 223° |
| 2026-05-01 10:38 | 45.90886 | 5.07277 | 4169 ft | 224 kts | 192° |
| 2026-05-01 10:39 | 45.89336 | 5.07231 | 3888 ft | 224 kts | 176° |
| 2026-05-01 10:39 | 45.87779 | 5.07435 | 3608 ft | 225 kts | 176° |
| 2026-05-01 10:39 | 45.86193 | 5.07637 | 3265 ft | 229 kts | 176° |
| 2026-05-01 10:39 | 45.84639 | 5.07828 | 2990 ft | 219 kts | 175° |
| 2026-05-01 10:40 | 45.83642 | 5.07952 | 2799 ft | 215 kts | 175° |
| 2026-05-01 10:40 | 45.82189 | 5.08129 | 2525 ft | 206 kts | 175° |
| 2026-05-01 10:40 | 45.80787 | 5.08300 | 2238 ft | 198 kts | 175° |
| 2026-05-01 10:40 | 45.79437 | 5.08463 | 1985 ft | 192 kts | 175° |
| 2026-05-01 10:41 | 45.78117 | 5.08625 | 1735 ft | 190 kts | 175° |
| 2026-05-01 10:41 | 45.76446 | 5.08828 | 1410 ft | 174 kts | 175° |
| 2026-05-01 10:41 | 45.74513 | 5.09063 | 1031 ft | 160 kts | 176° |
| 2026-05-01 10:42 | 45.73435 | 5.09195 | 829 ft | 151 kts | 176° |
| 2026-05-01 10:42 | 45.72455 | 5.09307 | 783 ft | 117 kts | 175° |
| 2026-05-01 10:42 | 45.71948 | 5.09377 | 790 ft | 29 kts | 175° |
| 2026-05-01 10:42 | 45.71846 | 5.09365 | 792 ft | 19 kts | 191° |
| 2026-05-01 10:43 | 45.71721 | 5.09305 | 795 ft | 19 kts | 203° |
| 2026-05-01 10:43 | 45.71659 | 5.09264 | 796 ft | 6 kts | 206° |
| 2026-05-01 10:43 | 45.71645 | 5.09247 | 797 ft | 0 kts | 228° |
| 2026-05-01 10:47 | 45.71645 | 5.09245 | 797 ft | 1 kts | 228° |
| 2026-05-01 10:48 | 45.71635 | 5.09200 | 797 ft | 9 kts | 264° |
| 2026-05-01 10:48 | 45.71629 | 5.09104 | 799 ft | 9 kts | 265° |
| 2026-05-01 10:48 | 45.71625 | 5.09022 | 800 ft | 8 kts | 265° |
| 2026-05-01 10:48 | 45.71620 | 5.08939 | 800 ft | 9 kts | 265° |
| 2026-05-01 10:49 | 45.71614 | 5.08839 | 800 ft | 11 kts | 265° |
| 2026-05-01 10:49 | 45.71607 | 5.08717 | 799 ft | 13 kts | 264° |
| 2026-05-01 10:49 | 45.71598 | 5.08579 | 799 ft | 15 kts | 265° |
| 2026-05-01 10:49 | 45.71639 | 5.08496 | 798 ft | 11 kts | 341° |
| 2026-05-01 10:50 | 45.71682 | 5.08423 | 798 ft | 11 kts | 268° |
| 2026-05-01 10:50 | 45.71675 | 5.08306 | 797 ft | 13 kts | 265° |
| 2026-05-01 10:50 | 45.71688 | 5.08176 | 797 ft | 14 kts | 285° |
| 2026-05-01 10:50 | 45.71749 | 5.08113 | 796 ft | 9 kts | 4° |
| 2026-05-01 10:51 | 45.71800 | 5.08099 | 796 ft | 7 kts | 7° |
| 2026-05-01 10:51 | 45.71843 | 5.08134 | 795 ft | 7 kts | 50° |
| 2026-05-01 10:51 | 45.71880 | 5.08191 | 795 ft | 9 kts | 36° |
| 2026-05-01 10:51 | 45.71910 | 5.08207 | 794 ft | 2 kts | 14° |
| 2026-05-01 10:52 | 45.71959 | 5.08221 | 794 ft | 10 kts | 354° |
| 2026-05-01 10:52 | 45.71989 | 5.08107 | 793 ft | 10 kts | 276° |
| 2026-05-01 10:52 | 45.71973 | 5.08047 | 793 ft | 1 kts | 250° |
| 2026-05-01 10:52 | 45.71973 | 5.08041 | 793 ft | 0 kts | 257° |